SEKCJA WYDRUKÓW, pokaż »

TAF EPRA 280200Z NIL=

TAF EPSY 280530Z 2806/2815 35005KT 9999 BKN020
TEMPO 2806/2809 BKN010
PROB40 TEMPO 2806/2809 4000 -SN BR BKN004=

TAF EPZG 280530Z 2806/2815 36005KT 9999 OVC020=